sensor_id;sensor_type;location;lat;lon;timestamp;temperature;humidity
40848;DHT22;26570;50.962;5.340;2023-04-16T00:02:24;8.90;99.90
40848;DHT22;26570;50.962;5.340;2023-04-16T00:05:52;8.90;99.90
40848;DHT22;26570;50.962;5.340;2023-04-16T00:08:51;9.30;99.90
40848;DHT22;26570;50.962;5.340;2023-04-16T00:12:12;9.20;99.90
40848;DHT22;26570;50.962;5.340;2023-04-16T00:15:35;9.10;99.90
40848;DHT22;26570;50.962;5.340;2023-04-16T00:18:34;9.10;99.90
40848;DHT22;26570;50.962;5.340;2023-04-16T00:21:54;9.00;99.90
40848;DHT22;26570;50.962;5.340;2023-04-16T00:32:18;8.60;99.90
40848;DHT22;26570;50.962;5.340;2023-04-16T00:35:45;8.20;99.90
40848;DHT22;26570;50.962;5.340;2023-04-16T00:45:50;8.70;99.90
40848;DHT22;26570;50.962;5.340;2023-04-16T00:48:47;8.80;99.90
40848;DHT22;26570;50.962;5.340;2023-04-16T00:51:52;8.90;99.90
40848;DHT22;26570;50.962;5.340;2023-04-16T00:55:04;9.00;99.90
40848;DHT22;26570;50.962;5.340;2023-04-16T00:58:31;9.00;99.90
40848;DHT22;26570;50.962;5.340;2023-04-16T01:04:57;9.00;99.90
40848;DHT22;26570;50.962;5.340;2023-04-16T01:07:49;9.00;99.90
40848;DHT22;26570;50.962;5.340;2023-04-16T01:11:30;9.00;99.90
40848;DHT22;26570;50.962;5.340;2023-04-16T01:14:28;8.80;99.90
40848;DHT22;26570;50.962;5.340;2023-04-16T01:17:59;8.60;99.90
40848;DHT22;26570;50.962;5.340;2023-04-16T01:21:00;8.70;99.90
40848;DHT22;26570;50.962;5.340;2023-04-16T01:24:26;8.70;99.90
40848;DHT22;26570;50.962;5.340;2023-04-16T01:27:52;8.70;99.90
40848;DHT22;26570;50.962;5.340;2023-04-16T01:31:35;8.70;99.90
40848;DHT22;26570;50.962;5.340;2023-04-16T01:38:54;9.00;99.90
40848;DHT22;26570;50.962;5.340;2023-04-16T01:42:14;8.80;99.90
40848;DHT22;26570;50.962;5.340;2023-04-16T01:45:42;8.80;99.90
40848;DHT22;26570;50.962;5.340;2023-04-16T01:48:44;8.70;99.90
40848;DHT22;26570;50.962;5.340;2023-04-16T01:51:56;9.00;99.90
40848;DHT22;26570;50.962;5.340;2023-04-16T01:54:54;9.00;99.90
40848;DHT22;26570;50.962;5.340;2023-04-16T01:58:04;8.70;99.90
40848;DHT22;26570;50.962;5.340;2023-04-16T02:01:34;8.90;99.90
40848;DHT22;26570;50.962;5.340;2023-04-16T02:04:44;8.60;99.90
40848;DHT22;26570;50.962;5.340;2023-04-16T02:07:55;8.50;99.90
40848;DHT22;26570;50.962;5.340;2023-04-16T02:10:56;8.60;99.90
40848;DHT22;26570;50.962;5.340;2023-04-16T02:14:02;8.50;99.90
40848;DHT22;26570;50.962;5.340;2023-04-16T02:17:13;8.70;99.90
40848;DHT22;26570;50.962;5.340;2023-04-16T02:20:52;8.90;99.90
40848;DHT22;26570;50.962;5.340;2023-04-16T02:27:08;9.60;99.90
40848;DHT22;26570;50.962;5.340;2023-04-16T02:30:10;8.60;99.90
40848;DHT22;26570;50.962;5.340;2023-04-16T02:33:26;8.70;99.90
40848;DHT22;26570;50.962;5.340;2023-04-16T02:36:53;8.80;99.90
40848;DHT22;26570;50.962;5.340;2023-04-16T02:39:52;8.80;99.90
40848;DHT22;26570;50.962;5.340;2023-04-16T02:43:02;8.70;99.90
40848;DHT22;26570;50.962;5.340;2023-04-16T02:46:07;8.70;99.90
40848;DHT22;26570;50.962;5.340;2023-04-16T02:49:25;8.70;99.90
40848;DHT22;26570;50.962;5.340;2023-04-16T02:52:45;8.70;99.90
40848;DHT22;26570;50.962;5.340;2023-04-16T02:56:01;8.80;99.90
40848;DHT22;26570;50.962;5.340;2023-04-16T02:59:03;8.40;99.90
40848;DHT22;26570;50.962;5.340;2023-04-16T03:02:38;8.80;99.90
40848;DHT22;26570;50.962;5.340;2023-04-16T03:05:42;8.60;99.90
40848;DHT22;26570;50.962;5.340;2023-04-16T03:08:34;8.80;99.90
40848;DHT22;26570;50.962;5.340;2023-04-16T03:11:53;8.70;99.90
40848;DHT22;26570;50.962;5.340;2023-04-16T03:15:14;8.70;99.90
40848;DHT22;26570;50.962;5.340;2023-04-16T03:18:18;8.90;99.90
40848;DHT22;26570;50.962;5.340;2023-04-16T03:21:27;8.50;99.90
40848;DHT22;26570;50.962;5.340;2023-04-16T03:24:23;8.80;99.90
40848;DHT22;26570;50.962;5.340;2023-04-16T03:27:12;9.00;99.90
40848;DHT22;26570;50.962;5.340;2023-04-16T03:34:00;8.90;99.90
40848;DHT22;26570;50.962;5.340;2023-04-16T03:37:18;9.00;99.90
40848;DHT22;26570;50.962;5.340;2023-04-16T03:44:11;8.60;99.90
40848;DHT22;26570;50.962;5.340;2023-04-16T03:47:38;8.90;99.90
40848;DHT22;26570;50.962;5.340;2023-04-16T03:50:27;9.00;99.90
40848;DHT22;26570;50.962;5.340;2023-04-16T03:53:19;8.30;99.90
40848;DHT22;26570;50.962;5.340;2023-04-16T03:56:30;8.60;99.90
40848;DHT22;26570;50.962;5.340;2023-04-16T03:59:57;8.90;99.90
40848;DHT22;26570;50.962;5.340;2023-04-16T04:07:42;9.70;99.90
40848;DHT22;26570;50.962;5.340;2023-04-16T04:10:46;8.80;99.90
40848;DHT22;26570;50.962;5.340;2023-04-16T04:13:51;9.00;99.90
40848;DHT22;26570;50.962;5.340;2023-04-16T04:17:18;9.00;99.90
40848;DHT22;26570;50.962;5.340;2023-04-16T04:20:57;9.00;99.90
40848;DHT22;26570;50.962;5.340;2023-04-16T04:24:10;9.00;99.90
40848;DHT22;26570;50.962;5.340;2023-04-16T04:27:39;9.00;99.90
40848;DHT22;26570;50.962;5.340;2023-04-16T04:31:05;8.90;99.90
40848;DHT22;26570;50.962;5.340;2023-04-16T04:38:09;9.00;99.90
40848;DHT22;26570;50.962;5.340;2023-04-16T04:44:47;8.80;99.90
40848;DHT22;26570;50.962;5.340;2023-04-16T04:48:14;9.00;99.90
40848;DHT22;26570;50.962;5.340;2023-04-16T04:51:41;9.00;99.90
40848;DHT22;26570;50.962;5.340;2023-04-16T04:54:57;9.20;99.90
40848;DHT22;26570;50.962;5.340;2023-04-16T04:58:01;9.10;99.90
40848;DHT22;26570;50.962;5.340;2023-04-16T05:01:36;9.30;99.90
40848;DHT22;26570;50.962;5.340;2023-04-16T05:05:01;9.10;99.90
40848;DHT22;26570;50.962;5.340;2023-04-16T05:08:12;9.10;99.90
40848;DHT22;26570;50.962;5.340;2023-04-16T05:11:46;9.10;99.90
40848;DHT22;26570;50.962;5.340;2023-04-16T05:15:06;9.10;99.90
40848;DHT22;26570;50.962;5.340;2023-04-16T05:18:17;9.30;99.90
40848;DHT22;26570;50.962;5.340;2023-04-16T05:21:29;9.10;99.90
40848;DHT22;26570;50.962;5.340;2023-04-16T05:24:53;9.10;99.90
40848;DHT22;26570;50.962;5.340;2023-04-16T05:28:15;9.30;99.90
40848;DHT22;26570;50.962;5.340;2023-04-16T05:32:14;9.70;99.90
40848;DHT22;26570;50.962;5.340;2023-04-16T05:35:28;9.10;99.90
40848;DHT22;26570;50.962;5.340;2023-04-16T05:39:00;9.10;99.90
40848;DHT22;26570;50.962;5.340;2023-04-16T05:45:27;9.10;99.90
40848;DHT22;26570;50.962;5.340;2023-04-16T05:48:37;8.90;99.90
40848;DHT22;26570;50.962;5.340;2023-04-16T05:52:05;9.30;99.90
40848;DHT22;26570;50.962;5.340;2023-04-16T05:54:59;9.20;99.90
40848;DHT22;26570;50.962;5.340;2023-04-16T05:58:19;9.10;99.90
40848;DHT22;26570;50.962;5.340;2023-04-16T06:01:52;9.00;99.90
40848;DHT22;26570;50.962;5.340;2023-04-16T06:04:41;9.00;99.90
40848;DHT22;26570;50.962;5.340;2023-04-16T06:08:05;8.90;99.90
40848;DHT22;26570;50.962;5.340;2023-04-16T06:10:58;9.20;99.90
40848;DHT22;26570;50.962;5.340;2023-04-16T06:13:56;9.20;99.90
40848;DHT22;26570;50.962;5.340;2023-04-16T06:16:45;9.10;99.90
40848;DHT22;26570;50.962;5.340;2023-04-16T06:19:47;9.20;99.90
40848;DHT22;26570;50.962;5.340;2023-04-16T06:22:59;9.30;99.90
40848;DHT22;26570;50.962;5.340;2023-04-16T06:25:52;9.20;99.90
40848;DHT22;26570;50.962;5.340;2023-04-16T06:29:03;9.10;99.90
40848;DHT22;26570;50.962;5.340;2023-04-16T06:31:59;9.20;99.90
40848;DHT22;26570;50.962;5.340;2023-04-16T06:35:10;9.20;99.90
40848;DHT22;26570;50.962;5.340;2023-04-16T06:38:02;9.10;99.90
40848;DHT22;26570;50.962;5.340;2023-04-16T06:41:15;9.20;99.90
40848;DHT22;26570;50.962;5.340;2023-04-16T06:44:07;9.20;99.90
40848;DHT22;26570;50.962;5.340;2023-04-16T06:47:23;9.40;99.90
40848;DHT22;26570;50.962;5.340;2023-04-16T06:50:12;9.30;99.90
40848;DHT22;26570;50.962;5.340;2023-04-16T06:53:02;9.30;99.90
40848;DHT22;26570;50.962;5.340;2023-04-16T06:55:51;9.40;99.90
40848;DHT22;26570;50.962;5.340;2023-04-16T06:58:45;9.50;99.90
40848;DHT22;26570;50.962;5.340;2023-04-16T07:01:56;9.40;99.90
40848;DHT22;26570;50.962;5.340;2023-04-16T07:05:00;9.40;99.90
40848;DHT22;26570;50.962;5.340;2023-04-16T07:07:50;9.70;99.90
40848;DHT22;26570;50.962;5.340;2023-04-16T07:11:07;9.50;99.90
40848;DHT22;26570;50.962;5.340;2023-04-16T07:14:00;9.50;99.90
40848;DHT22;26570;50.962;5.340;2023-04-16T07:16:50;9.50;99.90
40848;DHT22;26570;50.962;5.340;2023-04-16T07:20:13;9.60;99.90
40848;DHT22;26570;50.962;5.340;2023-04-16T07:23:09;9.70;99.90
40848;DHT22;26570;50.962;5.340;2023-04-16T07:26:39;9.70;99.90
40848;DHT22;26570;50.962;5.340;2023-04-16T07:29:38;9.70;99.90
40848;DHT22;26570;50.962;5.340;2023-04-16T07:32:27;9.70;99.90
40848;DHT22;26570;50.962;5.340;2023-04-16T07:35:22;10.00;99.90
40848;DHT22;26570;50.962;5.340;2023-04-16T07:38:12;9.90;99.90
40848;DHT22;26570;50.962;5.340;2023-04-16T07:41:33;9.70;99.90
40848;DHT22;26570;50.962;5.340;2023-04-16T07:44:25;9.80;99.90
40848;DHT22;26570;50.962;5.340;2023-04-16T07:47:21;9.80;99.90
40848;DHT22;26570;50.962;5.340;2023-04-16T07:50:14;9.70;99.90
40848;DHT22;26570;50.962;5.340;2023-04-16T07:53:08;9.80;99.90
40848;DHT22;26570;50.962;5.340;2023-04-16T07:55:58;9.70;99.90
40848;DHT22;26570;50.962;5.340;2023-04-16T07:58:50;9.80;99.90
40848;DHT22;26570;50.962;5.340;2023-04-16T08:01:38;9.80;99.90
40848;DHT22;26570;50.962;5.340;2023-04-16T08:04:34;9.80;99.90
40848;DHT22;26570;50.962;5.340;2023-04-16T08:07:29;9.90;99.90
40848;DHT22;26570;50.962;5.340;2023-04-16T08:10:20;9.90;99.90
40848;DHT22;26570;50.962;5.340;2023-04-16T08:13:41;9.90;99.90
40848;DHT22;26570;50.962;5.340;2023-04-16T08:17:03;10.10;99.90
40848;DHT22;26570;50.962;5.340;2023-04-16T08:19:57;9.90;99.90
40848;DHT22;26570;50.962;5.340;2023-04-16T08:22:52;10.00;99.90
40848;DHT22;26570;50.962;5.340;2023-04-16T08:26:12;10.00;99.90
40848;DHT22;26570;50.962;5.340;2023-04-16T08:29:11;10.20;99.90
40848;DHT22;26570;50.962;5.340;2023-04-16T08:32:13;10.10;99.90
40848;DHT22;26570;50.962;5.340;2023-04-16T08:35:35;10.10;99.90
40848;DHT22;26570;50.962;5.340;2023-04-16T08:38:31;10.20;99.90
40848;DHT22;26570;50.962;5.340;2023-04-16T08:41:27;10.10;99.90
40848;DHT22;26570;50.962;5.340;2023-04-16T08:44:42;10.30;99.90
40848;DHT22;26570;50.962;5.340;2023-04-16T08:47:42;10.20;99.90
40848;DHT22;26570;50.962;5.340;2023-04-16T08:50:34;10.20;99.90
40848;DHT22;26570;50.962;5.340;2023-04-16T08:53:34;10.40;99.90
40848;DHT22;26570;50.962;5.340;2023-04-16T08:56:49;10.50;99.90
40848;DHT22;26570;50.962;5.340;2023-04-16T08:59:41;10.50;99.90
40848;DHT22;26570;50.962;5.340;2023-04-16T09:02:40;10.90;99.90
40848;DHT22;26570;50.962;5.340;2023-04-16T09:05:32;10.60;99.90
40848;DHT22;26570;50.962;5.340;2023-04-16T09:08:34;10.60;99.90
40848;DHT22;26570;50.962;5.340;2023-04-16T09:11:29;10.90;99.90
40848;DHT22;26570;50.962;5.340;2023-04-16T09:14:52;11.00;99.90
40848;DHT22;26570;50.962;5.340;2023-04-16T09:17:46;11.20;99.90
40848;DHT22;26570;50.962;5.340;2023-04-16T09:20:53;11.10;99.90
40848;DHT22;26570;50.962;5.340;2023-04-16T09:24:13;11.00;99.90
40848;DHT22;26570;50.962;5.340;2023-04-16T09:27:05;11.10;99.90
40848;DHT22;26570;50.962;5.340;2023-04-16T09:30:04;11.10;99.90
40848;DHT22;26570;50.962;5.340;2023-04-16T09:33:32;10.70;99.90
40848;DHT22;26570;50.962;5.340;2023-04-16T09:36:25;11.10;99.90
40848;DHT22;26570;50.962;5.340;2023-04-16T09:39:19;11.00;99.90
40848;DHT22;26570;50.962;5.340;2023-04-16T09:42:37;11.20;99.90
40848;DHT22;26570;50.962;5.340;2023-04-16T09:45:50;11.20;99.90
40848;DHT22;26570;50.962;5.340;2023-04-16T09:48:47;11.40;99.90
40848;DHT22;26570;50.962;5.340;2023-04-16T09:52:18;11.40;99.90
40848;DHT22;26570;50.962;5.340;2023-04-16T09:55:21;11.50;99.90
40848;DHT22;26570;50.962;5.340;2023-04-16T09:58:17;11.70;99.90
40848;DHT22;26570;50.962;5.340;2023-04-16T10:01:20;11.60;99.90
40848;DHT22;26570;50.962;5.340;2023-04-16T10:04:10;11.60;99.90
40848;DHT22;26570;50.962;5.340;2023-04-16T10:07:27;11.40;99.90
40848;DHT22;26570;50.962;5.340;2023-04-16T10:10:28;11.30;99.90
40848;DHT22;26570;50.962;5.340;2023-04-16T10:13:27;11.30;99.90
40848;DHT22;26570;50.962;5.340;2023-04-16T10:16:22;11.40;99.90
40848;DHT22;26570;50.962;5.340;2023-04-16T10:19:21;11.40;99.90
40848;DHT22;26570;50.962;5.340;2023-04-16T10:22:17;11.50;99.90
40848;DHT22;26570;50.962;5.340;2023-04-16T10:25:28;11.70;99.90
40848;DHT22;26570;50.962;5.340;2023-04-16T10:28:29;11.70;99.90
40848;DHT22;26570;50.962;5.340;2023-04-16T10:31:22;11.50;99.90
40848;DHT22;26570;50.962;5.340;2023-04-16T10:34:47;11.50;99.90
40848;DHT22;26570;50.962;5.340;2023-04-16T10:37:42;11.50;99.90
40848;DHT22;26570;50.962;5.340;2023-04-16T10:40:34;11.70;99.90
40848;DHT22;26570;50.962;5.340;2023-04-16T10:43:32;11.80;99.90
40848;DHT22;26570;50.962;5.340;2023-04-16T10:46:42;11.80;99.90
40848;DHT22;26570;50.962;5.340;2023-04-16T10:49:38;11.70;99.90
40848;DHT22;26570;50.962;5.340;2023-04-16T10:52:32;11.60;99.90
40848;DHT22;26570;50.962;5.340;2023-04-16T10:55:21;11.50;99.90
40848;DHT22;26570;50.962;5.340;2023-04-16T10:58:30;11.40;99.90
40848;DHT22;26570;50.962;5.340;2023-04-16T11:01:29;11.70;99.90
40848;DHT22;26570;50.962;5.340;2023-04-16T11:10:11;11.70;99.90
40848;DHT22;26570;50.962;5.340;2023-04-16T11:13:01;11.70;99.90
40848;DHT22;26570;50.962;5.340;2023-04-16T11:15:58;11.80;99.90
40848;DHT22;26570;50.962;5.340;2023-04-16T11:18:52;11.90;99.90
40848;DHT22;26570;50.962;5.340;2023-04-16T11:21:54;11.90;99.90
40848;DHT22;26570;50.962;5.340;2023-04-16T11:24:52;11.70;99.90
40848;DHT22;26570;50.962;5.340;2023-04-16T11:27:43;11.70;99.90
40848;DHT22;26570;50.962;5.340;2023-04-16T11:30:36;11.60;99.90
40848;DHT22;26570;50.962;5.340;2023-04-16T11:33:32;11.60;99.90
40848;DHT22;26570;50.962;5.340;2023-04-16T11:36:25;11.40;99.90
40848;DHT22;26570;50.962;5.340;2023-04-16T11:39:21;11.60;99.90
40848;DHT22;26570;50.962;5.340;2023-04-16T11:42:19;11.50;99.90
40848;DHT22;26570;50.962;5.340;2023-04-16T11:45:36;11.60;99.90
40848;DHT22;26570;50.962;5.340;2023-04-16T11:48:51;11.80;99.90
40848;DHT22;26570;50.962;5.340;2023-04-16T11:52:00;11.40;99.90
40848;DHT22;26570;50.962;5.340;2023-04-16T11:55:02;11.60;99.90
40848;DHT22;26570;50.962;5.340;2023-04-16T11:58:09;11.60;99.90
40848;DHT22;26570;50.962;5.340;2023-04-16T12:01:01;11.60;99.90
40848;DHT22;26570;50.962;5.340;2023-04-16T12:04:03;11.50;99.90
40848;DHT22;26570;50.962;5.340;2023-04-16T12:07:24;11.60;99.90
40848;DHT22;26570;50.962;5.340;2023-04-16T12:10:20;11.80;99.90
40848;DHT22;26570;50.962;5.340;2023-04-16T12:13:17;11.80;99.90
40848;DHT22;26570;50.962;5.340;2023-04-16T12:16:18;11.60;99.90
40848;DHT22;26570;50.962;5.340;2023-04-16T12:19:13;11.40;99.90
40848;DHT22;26570;50.962;5.340;2023-04-16T12:25:14;11.80;99.90
40848;DHT22;26570;50.962;5.340;2023-04-16T12:28:11;11.70;99.90
40848;DHT22;26570;50.962;5.340;2023-04-16T12:31:03;12.00;99.90
40848;DHT22;26570;50.962;5.340;2023-04-16T12:34:02;12.00;99.90
40848;DHT22;26570;50.962;5.340;2023-04-16T12:37:08;11.70;99.90
40848;DHT22;26570;50.962;5.340;2023-04-16T12:40:01;11.40;99.90
40848;DHT22;26570;50.962;5.340;2023-04-16T12:42:59;11.40;99.90
40848;DHT22;26570;50.962;5.340;2023-04-16T12:45:53;11.50;99.90
40848;DHT22;26570;50.962;5.340;2023-04-16T12:48:46;11.40;99.90
40848;DHT22;26570;50.962;5.340;2023-04-16T12:52:06;11.60;99.90
40848;DHT22;26570;50.962;5.340;2023-04-16T12:55:25;11.50;99.90
40848;DHT22;26570;50.962;5.340;2023-04-16T12:58:18;11.50;99.90
40848;DHT22;26570;50.962;5.340;2023-04-16T13:01:11;11.50;99.90
40848;DHT22;26570;50.962;5.340;2023-04-16T13:04:13;12.20;99.90
40848;DHT22;26570;50.962;5.340;2023-04-16T13:07:31;11.60;99.90
40848;DHT22;26570;50.962;5.340;2023-04-16T13:10:31;11.70;99.90
40848;DHT22;26570;50.962;5.340;2023-04-16T13:13:28;12.00;99.90
40848;DHT22;26570;50.962;5.340;2023-04-16T13:16:38;12.30;99.90
40848;DHT22;26570;50.962;5.340;2023-04-16T13:19:28;11.60;99.90
40848;DHT22;26570;50.962;5.340;2023-04-16T13:22:27;11.70;99.90
40848;DHT22;26570;50.962;5.340;2023-04-16T13:25:45;11.80;99.90
40848;DHT22;26570;50.962;5.340;2023-04-16T13:28:50;12.10;99.90
40848;DHT22;26570;50.962;5.340;2023-04-16T13:31:56;12.20;99.90
40848;DHT22;26570;50.962;5.340;2023-04-16T13:35:02;12.40;99.90
40848;DHT22;26570;50.962;5.340;2023-04-16T13:37:56;12.60;99.90
40848;DHT22;26570;50.962;5.340;2023-04-16T13:40:44;12.70;99.90
40848;DHT22;26570;50.962;5.340;2023-04-16T13:43:36;12.70;99.90
40848;DHT22;26570;50.962;5.340;2023-04-16T13:46:40;13.30;99.90
40848;DHT22;26570;50.962;5.340;2023-04-16T13:49:37;12.80;99.90
40848;DHT22;26570;50.962;5.340;2023-04-16T13:52:56;12.60;99.90
40848;DHT22;26570;50.962;5.340;2023-04-16T13:55:52;12.90;99.90
40848;DHT22;26570;50.962;5.340;2023-04-16T13:58:44;12.70;99.90
40848;DHT22;26570;50.962;5.340;2023-04-16T14:01:34;12.90;99.90
40848;DHT22;26570;50.962;5.340;2023-04-16T14:04:24;12.70;99.90
40848;DHT22;26570;50.962;5.340;2023-04-16T14:07:24;12.80;99.90
40848;DHT22;26570;50.962;5.340;2023-04-16T14:10:15;12.80;99.90
40848;DHT22;26570;50.962;5.340;2023-04-16T14:13:19;13.10;99.90
40848;DHT22;26570;50.962;5.340;2023-04-16T14:16:48;13.20;99.90
40848;DHT22;26570;50.962;5.340;2023-04-16T14:19:39;13.20;99.90
40848;DHT22;26570;50.962;5.340;2023-04-16T14:22:37;13.20;99.90
40848;DHT22;26570;50.962;5.340;2023-04-16T14:25:38;13.80;99.90
40848;DHT22;26570;50.962;5.340;2023-04-16T14:28:33;13.40;99.90
40848;DHT22;26570;50.962;5.340;2023-04-16T14:31:23;13.10;99.90
40848;DHT22;26570;50.962;5.340;2023-04-16T14:34:40;13.30;99.90
40848;DHT22;26570;50.962;5.340;2023-04-16T14:38:11;13.30;99.90
40848;DHT22;26570;50.962;5.340;2023-04-16T14:41:09;13.40;99.90
40848;DHT22;26570;50.962;5.340;2023-04-16T14:44:19;13.50;99.90
40848;DHT22;26570;50.962;5.340;2023-04-16T14:47:58;13.20;99.90
40848;DHT22;26570;50.962;5.340;2023-04-16T14:50:59;13.60;99.90
40848;DHT22;26570;50.962;5.340;2023-04-16T14:54:06;13.60;99.90
40848;DHT22;26570;50.962;5.340;2023-04-16T14:57:01;13.90;99.90
40848;DHT22;26570;50.962;5.340;2023-04-16T15:00:00;14.00;99.90
40848;DHT22;26570;50.962;5.340;2023-04-16T15:03:03;14.10;99.90
40848;DHT22;26570;50.962;5.340;2023-04-16T15:05:57;14.30;99.90
40848;DHT22;26570;50.962;5.340;2023-04-16T15:12:23;14.40;99.90
40848;DHT22;26570;50.962;5.340;2023-04-16T15:15:35;14.60;99.90
40848;DHT22;26570;50.962;5.340;2023-04-16T15:18:35;14.70;99.90
40848;DHT22;26570;50.962;5.340;2023-04-16T15:21:27;14.60;99.90
40848;DHT22;26570;50.962;5.340;2023-04-16T15:24:56;14.60;99.90
40848;DHT22;26570;50.962;5.340;2023-04-16T15:27:57;14.40;99.90
40848;DHT22;26570;50.962;5.340;2023-04-16T15:31:16;14.60;99.90
40848;DHT22;26570;50.962;5.340;2023-04-16T15:34:17;14.30;99.90
40848;DHT22;26570;50.962;5.340;2023-04-16T15:37:11;14.20;99.90
40848;DHT22;26570;50.962;5.340;2023-04-16T15:40:24;14.40;99.90
40848;DHT22;26570;50.962;5.340;2023-04-16T15:46:54;14.30;99.90
40848;DHT22;26570;50.962;5.340;2023-04-16T15:49:56;14.50;99.90
40848;DHT22;26570;50.962;5.340;2023-04-16T15:53:13;14.40;99.90
40848;DHT22;26570;50.962;5.340;2023-04-16T15:56:06;14.40;99.90
40848;DHT22;26570;50.962;5.340;2023-04-16T15:59:05;14.30;99.90
40848;DHT22;26570;50.962;5.340;2023-04-16T16:02:39;14.00;99.90
40848;DHT22;26570;50.962;5.340;2023-04-16T16:05:33;13.70;99.90
40848;DHT22;26570;50.962;5.340;2023-04-16T16:08:29;13.60;99.90
40848;DHT22;26570;50.962;5.340;2023-04-16T16:11:35;13.50;99.90
40848;DHT22;26570;50.962;5.340;2023-04-16T16:14:25;13.30;99.90
40848;DHT22;26570;50.962;5.340;2023-04-16T16:17:24;13.30;99.90
40848;DHT22;26570;50.962;5.340;2023-04-16T16:20:23;13.40;99.90
40848;DHT22;26570;50.962;5.340;2023-04-16T16:23:16;12.80;99.90
40848;DHT22;26570;50.962;5.340;2023-04-16T16:26:13;12.90;99.90
40848;DHT22;26570;50.962;5.340;2023-04-16T16:29:25;12.80;99.90
40848;DHT22;26570;50.962;5.340;2023-04-16T16:32:21;12.80;99.90
40848;DHT22;26570;50.962;5.340;2023-04-16T16:35:28;13.00;99.90
40848;DHT22;26570;50.962;5.340;2023-04-16T16:38:56;13.00;99.90
40848;DHT22;26570;50.962;5.340;2023-04-16T16:41:53;12.90;99.90
40848;DHT22;26570;50.962;5.340;2023-04-16T16:45:13;13.00;99.90
40848;DHT22;26570;50.962;5.340;2023-04-16T16:48:25;13.10;99.90
40848;DHT22;26570;50.962;5.340;2023-04-16T16:51:20;13.10;99.90
40848;DHT22;26570;50.962;5.340;2023-04-16T16:54:13;13.20;99.90
40848;DHT22;26570;50.962;5.340;2023-04-16T16:57:08;13.20;99.90
40848;DHT22;26570;50.962;5.340;2023-04-16T17:00:02;13.20;99.90
40848;DHT22;26570;50.962;5.340;2023-04-16T17:03:03;13.20;99.90
40848;DHT22;26570;50.962;5.340;2023-04-16T17:06:02;13.10;99.90
40848;DHT22;26570;50.962;5.340;2023-04-16T17:08:59;13.00;99.90
40848;DHT22;26570;50.962;5.340;2023-04-16T17:12:15;12.70;99.90
40848;DHT22;26570;50.962;5.340;2023-04-16T17:15:11;13.00;99.90
40848;DHT22;26570;50.962;5.340;2023-04-16T17:18:08;12.60;99.90
40848;DHT22;26570;50.962;5.340;2023-04-16T17:21:01;12.60;99.90
40848;DHT22;26570;50.962;5.340;2023-04-16T17:24:20;12.70;99.90
40848;DHT22;26570;50.962;5.340;2023-04-16T17:27:31;12.60;99.90
40848;DHT22;26570;50.962;5.340;2023-04-16T17:30:24;12.60;99.90
40848;DHT22;26570;50.962;5.340;2023-04-16T17:33:15;12.70;99.90
40848;DHT22;26570;50.962;5.340;2023-04-16T17:36:10;12.70;99.90
40848;DHT22;26570;50.962;5.340;2023-04-16T17:39:11;12.80;99.90
40848;DHT22;26570;50.962;5.340;2023-04-16T17:42:18;12.90;99.90
40848;DHT22;26570;50.962;5.340;2023-04-16T17:45:12;12.80;99.90
40848;DHT22;26570;50.962;5.340;2023-04-16T17:48:02;12.80;99.90
40848;DHT22;26570;50.962;5.340;2023-04-16T17:50:56;12.60;99.90
40848;DHT22;26570;50.962;5.340;2023-04-16T17:53:44;12.60;99.90
40848;DHT22;26570;50.962;5.340;2023-04-16T17:56:45;12.20;99.90
40848;DHT22;26570;50.962;5.340;2023-04-16T17:59:41;12.50;99.90
40848;DHT22;26570;50.962;5.340;2023-04-16T18:02:41;12.50;99.90
40848;DHT22;26570;50.962;5.340;2023-04-16T18:05:46;12.20;99.90
40848;DHT22;26570;50.962;5.340;2023-04-16T18:08:59;12.10;99.90
40848;DHT22;26570;50.962;5.340;2023-04-16T18:12:01;12.20;99.90
40848;DHT22;26570;50.962;5.340;2023-04-16T18:15:15;11.90;99.90
40848;DHT22;26570;50.962;5.340;2023-04-16T18:18:10;12.00;99.90
40848;DHT22;26570;50.962;5.340;2023-04-16T18:21:06;12.10;99.90
40848;DHT22;26570;50.962;5.340;2023-04-16T18:23:58;12.10;99.90
40848;DHT22;26570;50.962;5.340;2023-04-16T18:27:04;12.10;99.90
40848;DHT22;26570;50.962;5.340;2023-04-16T18:30:02;12.10;99.90
40848;DHT22;26570;50.962;5.340;2023-04-16T18:33:03;12.40;99.90
40848;DHT22;26570;50.962;5.340;2023-04-16T18:36:06;12.20;99.90
40848;DHT22;26570;50.962;5.340;2023-04-16T18:39:04;12.50;99.90
40848;DHT22;26570;50.962;5.340;2023-04-16T18:42:06;12.30;99.90
40848;DHT22;26570;50.962;5.340;2023-04-16T18:45:04;12.10;99.90
40848;DHT22;26570;50.962;5.340;2023-04-16T18:48:03;12.10;99.90
40848;DHT22;26570;50.962;5.340;2023-04-16T18:50:59;12.10;99.90
40848;DHT22;26570;50.962;5.340;2023-04-16T18:53:53;11.90;99.90
40848;DHT22;26570;50.962;5.340;2023-04-16T18:56:53;11.90;99.90
40848;DHT22;26570;50.962;5.340;2023-04-16T19:00:22;12.10;99.90
40848;DHT22;26570;50.962;5.340;2023-04-16T19:03:09;12.10;99.90
40848;DHT22;26570;50.962;5.340;2023-04-16T19:06:08;12.30;99.90
40848;DHT22;26570;50.962;5.340;2023-04-16T19:09:00;12.00;99.90
40848;DHT22;26570;50.962;5.340;2023-04-16T19:11:55;12.10;99.90
40848;DHT22;26570;50.962;5.340;2023-04-16T19:14:49;12.00;99.90
40848;DHT22;26570;50.962;5.340;2023-04-16T19:17:44;12.20;99.90
40848;DHT22;26570;50.962;5.340;2023-04-16T19:20:44;12.10;99.90
40848;DHT22;26570;50.962;5.340;2023-04-16T19:23:35;12.00;99.90
40848;DHT22;26570;50.962;5.340;2023-04-16T19:26:35;11.90;99.90
40848;DHT22;26570;50.962;5.340;2023-04-16T19:29:32;11.90;99.90
40848;DHT22;26570;50.962;5.340;2023-04-16T19:32:20;11.70;99.90
40848;DHT22;26570;50.962;5.340;2023-04-16T19:35:47;11.80;99.90
40848;DHT22;26570;50.962;5.340;2023-04-16T19:38:52;12.00;99.90
40848;DHT22;26570;50.962;5.340;2023-04-16T19:42:06;12.00;99.90
40848;DHT22;26570;50.962;5.340;2023-04-16T19:45:23;12.10;99.90
40848;DHT22;26570;50.962;5.340;2023-04-16T19:48:25;12.10;99.90
40848;DHT22;26570;50.962;5.340;2023-04-16T19:51:21;12.00;99.90
40848;DHT22;26570;50.962;5.340;2023-04-16T19:54:19;12.10;99.90
40848;DHT22;26570;50.962;5.340;2023-04-16T19:57:11;12.00;99.90
40848;DHT22;26570;50.962;5.340;2023-04-16T20:00:21;12.10;99.90
40848;DHT22;26570;50.962;5.340;2023-04-16T20:03:43;12.00;99.90
40848;DHT22;26570;50.962;5.340;2023-04-16T20:06:47;12.00;99.90
40848;DHT22;26570;50.962;5.340;2023-04-16T20:10:04;11.90;99.90
40848;DHT22;26570;50.962;5.340;2023-04-16T20:13:05;11.80;99.90
40848;DHT22;26570;50.962;5.340;2023-04-16T20:16:18;11.80;99.90
40848;DHT22;26570;50.962;5.340;2023-04-16T20:19:52;12.00;99.90
40848;DHT22;26570;50.962;5.340;2023-04-16T20:22:53;11.90;99.90
40848;DHT22;26570;50.962;5.340;2023-04-16T20:26:16;12.00;99.90
40848;DHT22;26570;50.962;5.340;2023-04-16T20:29:38;11.80;99.90
40848;DHT22;26570;50.962;5.340;2023-04-16T20:33:00;12.00;99.90
40848;DHT22;26570;50.962;5.340;2023-04-16T20:36:12;11.90;99.90
40848;DHT22;26570;50.962;5.340;2023-04-16T20:39:01;11.80;99.90
40848;DHT22;26570;50.962;5.340;2023-04-16T20:42:16;11.80;99.90